Time;durP1;ratioP1;P1;durP2;ratioP2;P2;SDS_P1;SDS_P2;PMS_P1;PMS_P2;Temp;Humidity;BMP_temperature;BMP_pressure;BME280_temperature;BME280_humidity;BME280_pressure;Samples;Min_cycle;Max_cycle;Signal;HPM_P1;HPM_P2
2021/05/17 04:52:41;;;;;;;6.05;4.32;;;9.70;99.90;;;;;;4890565;29;20405;-69
2021/05/17 04:55:09;;;;;;;4.72;4.32;;;9.70;99.90;;;;;;4894992;29;20040;-68
2021/05/17 04:57:36;;;;;;;7.47;4.22;;;9.60;99.90;;;;;;4895788;29;20071;-68
2021/05/17 05:00:05;;;;;;;8.18;5.28;;;9.60;99.90;;;;;;4896073;29;20051;-68
2021/05/17 05:02:31;;;;;;;4.88;4.47;;;9.70;99.90;;;;;;4894641;29;20493;-69
2021/05/17 05:20:46;;;;;;;5.70;5.18;;;9.80;99.90;;;;;;4975158;23;20526;-83
2021/05/17 05:24:26;;;;;;;8.68;5.32;;;9.80;99.90;;;;;;4974641;28;20072;-83
2021/05/17 05:27:39;;;;;;;5.97;5.28;;;9.80;99.90;;;;;;4933577;29;20090;-84
2021/05/17 05:30:40;;;;;;;5.32;4.80;;;10.00;99.90;;;;;;4910760;23;20088;-84
2021/05/17 05:33:15;;;;;;;5.80;4.50;;;10.00;99.90;;;;;;4916333;29;20055;-83
2021/05/17 05:38:23;;;;;;;6.03;4.03;;;10.10;99.90;;;;;;4950513;29;20107;-68
2021/05/17 05:40:50;;;;;;;4.80;4.32;;;10.30;99.90;;;;;;4950925;29;20105;-68
2021/05/17 05:43:18;;;;;;;6.03;4.13;;;10.30;99.90;;;;;;4952195;29;20559;-69
2021/05/17 05:45:45;;;;;;;4.80;3.70;;;10.50;99.90;;;;;;4951421;29;20677;-69
2021/05/17 05:48:12;;;;;;;5.97;3.03;;;10.80;99.90;;;;;;4951939;29;20039;-69
2021/05/17 05:50:39;;;;;;;3.92;3.22;;;10.90;99.90;;;;;;4973803;23;20073;-67
2021/05/17 05:53:06;;;;;;;3.40;3.00;;;11.20;99.90;;;;;;4971077;28;20499;-67
2021/05/17 05:55:33;;;;;;;;;;;11.10;99.90;;;;;;4971652;28;20043;-69
2021/05/17 05:58:00;;;;;;;8.32;2.70;;;11.20;99.90;;;;;;4971574;28;19965;-68
2021/05/17 06:00:29;;;;;;;4.70;3.00;;;11.30;99.90;;;;;;4971137;28;20054;-69
2021/05/17 06:02:56;;;;;;;5.95;3.38;;;11.20;99.90;;;;;;4970649;28;20094;-69
2021/05/17 06:05:23;;;;;;;3.88;3.30;;;11.50;99.90;;;;;;4953510;28;20053;-69
2021/05/17 06:07:50;;;;;;;2.70;2.33;;;11.80;99.90;;;;;;4971346;28;20081;-69
2021/05/17 06:10:16;;;;;;;;;;;12.30;99.90;;;;;;4971208;28;20043;-68
2021/05/17 06:12:46;;;;;;;2.90;1.40;;;13.30;99.90;;;;;;4970787;28;19949;-70
2021/05/17 06:15:14;;;;;;;5.32;1.50;;;14.00;99.90;;;;;;4971046;28;20073;-70
2021/05/17 06:17:42;;;;;;;4.20;1.40;;;13.90;99.90;;;;;;4970869;28;20085;-70
2021/05/17 06:20:10;;;;;;;5.60;1.40;;;14.00;99.90;;;;;;4970278;28;20090;-68
2021/05/17 06:22:38;;;;;;;3.65;1.55;;;13.60;99.90;;;;;;4970844;28;20066;-68
2021/05/17 06:25:06;;;;;;;5.03;2.08;;;13.50;99.90;;;;;;4953414;28;20058;-68
2021/05/17 06:27:34;;;;;;;1.40;1.00;;;13.40;99.90;;;;;;4970824;28;20043;-68
2021/05/17 06:30:02;;;;;;;2.75;1.70;;;13.40;99.90;;;;;;4953410;28;20108;-68
2021/05/17 06:32:29;;;;;;;2.67;1.80;;;13.30;99.90;;;;;;4970488;28;20039;-68
2021/05/17 06:34:56;;;;;;;6.10;1.75;;;13.30;99.90;;;;;;4970740;28;20047;-68
2021/05/17 06:37:23;;;;;;;4.28;2.50;;;13.40;99.90;;;;;;4970871;28;20046;-67
2021/05/17 06:39:49;;;;;;;3.47;2.40;;;13.00;99.90;;;;;;4952852;28;20097;-70
2021/05/17 06:42:17;;;;;;;;;;;12.60;99.90;;;;;;4971074;28;20130;-69
2021/05/17 06:44:44;;;;;;;;;;;12.70;99.90;;;;;;4971235;28;20042;-68
2021/05/17 06:47:12;;;;;;;5.32;3.10;;;12.60;99.90;;;;;;4970619;28;19922;-68
2021/05/17 06:49:40;;;;;;;4.45;2.10;;;13.40;99.90;;;;;;4970574;28;20039;-68
2021/05/17 06:52:09;;;;;;;2.83;1.65;;;13.60;99.90;;;;;;4953584;28;20422;-69
2021/05/17 06:54:36;;;;;;;3.65;1.50;;;14.10;99.90;;;;;;4970628;28;20385;-69
2021/05/17 06:57:09;;;;;;;7.10;1.13;;;14.70;99.90;;;;;;4970906;28;20185;-68
2021/05/17 06:59:43;;;;;;;4.07;1.00;;;16.20;99.90;;;;;;4970704;28;20126;-68
2021/05/17 07:02:18;;;;;;;4.85;0.70;;;16.90;99.90;;;;;;4970801;28;20046;-68
2021/05/17 07:04:45;;;;;;;4.20;0.70;;;16.90;99.90;;;;;;4970836;28;20055;-68
2021/05/17 07:07:15;;;;;;;3.70;0.65;;;15.50;99.90;;;;;;4970668;28;20161;-68
2021/05/17 07:12:26;;;;;;;9.02;1.20;;;14.40;99.90;;;;;;4970790;28;20098;-68
2021/05/17 07:14:52;;;;;;;4.10;0.60;;;13.70;99.90;;;;;;4953219;28;20051;-68
2021/05/17 07:17:20;;;;;;;5.55;1.08;;;14.90;99.90;;;;;;4974027;28;20051;-68
2021/05/17 07:19:46;;;;;;;1.83;0.88;;;16.20;99.90;;;;;;4973728;28;20050;-68
2021/05/17 07:24:57;;;;;;;4.47;0.90;;;16.70;99.90;;;;;;4974242;28;20038;-68
2021/05/17 07:27:24;;;;;;;4.97;1.08;;;16.30;99.90;;;;;;4973997;28;20049;-68
2021/05/17 07:29:51;;;;;;;2.75;0.80;;;17.70;99.90;;;;;;4973630;28;20042;-68
2021/05/17 07:32:18;;;;;;;4.40;0.77;;;18.60;99.90;;;;;;4973702;28;20042;-68
2021/05/17 07:34:45;;;;;;;;;;;18.50;99.90;;;;;;4974527;28;20061;-68
2021/05/17 07:37:11;;;;;;;3.35;0.88;;;18.20;99.90;;;;;;4973615;28;19989;-68
2021/05/17 07:39:38;;;;;;;5.00;1.20;;;18.30;99.90;;;;;;4970853;28;20053;-67
2021/05/17 07:42:05;;;;;;;2.55;0.63;;;17.40;99.90;;;;;;4954023;29;20047;-66
2021/05/17 07:44:32;;;;;;;1.98;0.70;;;16.80;99.90;;;;;;4937028;29;20094;-67
2021/05/17 07:46:58;;;;;;;;;;;16.00;99.90;;;;;;4955021;29;20392;-67
2021/05/17 07:49:34;;;;;;;2.25;0.75;;;15.60;99.90;;;;;;4953856;29;19930;-67
2021/05/17 07:52:03;;;;;;;4.10;0.75;;;15.40;99.90;;;;;;4956901;28;20043;-67
2021/05/17 07:54:30;;;;;;;6.57;1.15;;;14.50;99.90;;;;;;4964236;28;20047;-68
2021/05/17 07:56:57;;;;;;;2.15;0.70;;;14.30;99.90;;;;;;4960586;28;20157;-67
2021/05/17 07:59:27;;;;;;;3.53;0.80;;;14.40;99.90;;;;;;4967567;28;20047;-67
2021/05/17 08:01:55;;;;;;;4.65;0.70;;;14.30;99.90;;;;;;4967401;28;20069;-67
2021/05/17 08:04:22;;;;;;;3.83;0.77;;;14.20;99.90;;;;;;4967363;28;20078;-67
2021/05/17 08:06:48;;;;;;;2.85;0.60;;;14.30;99.90;;;;;;4951968;28;20258;-66
2021/05/17 08:09:15;;;;;;;;;;;14.30;99.90;;;;;;4972638;28;20043;-67
2021/05/17 08:11:44;;;;;;;5.33;1.20;;;14.50;99.90;;;;;;4972465;28;19933;-67
2021/05/17 08:14:10;;;;;;;2.08;0.70;;;14.30;99.90;;;;;;4954496;28;20039;-67
2021/05/17 08:16:37;;;;;;;4.32;0.60;;;14.20;99.90;;;;;;4955177;28;20483;-67
2021/05/17 08:19:04;;;;;;;2.55;0.90;;;14.20;99.90;;;;;;4973485;28;20070;-67
2021/05/17 08:21:30;;;;;;;6.60;1.33;;;13.90;99.90;;;;;;4972778;28;20043;-67
2021/05/17 08:23:58;;;;;;;2.25;0.98;;;13.40;99.90;;;;;;4972525;28;20050;-67
2021/05/17 08:26:25;;;;;;;4.30;1.38;;;12.90;99.90;;;;;;4972010;28;20046;-66
2021/05/17 08:28:52;;;;;;;3.80;1.08;;;12.80;99.90;;;;;;4971717;28;20046;-68
2021/05/17 08:31:22;;;;;;;3.65;0.90;;;12.80;99.90;;;;;;4972552;28;20427;-68
2021/05/17 08:33:49;;;;;;;3.90;1.23;;;12.90;99.90;;;;;;4969657;28;20038;-67
2021/05/17 08:36:16;;;;;;;3.20;0.90;;;13.40;99.90;;;;;;4967827;28;20121;-67
2021/05/17 08:38:43;;;;;;;3.05;1.00;;;13.90;99.90;;;;;;4972377;28;20057;-69
2021/05/17 08:41:11;;;;;;;4.82;0.88;;;14.30;99.90;;;;;;4972505;28;20045;-67
2021/05/17 08:43:40;;;;;;;5.13;1.05;;;15.20;99.90;;;;;;4972356;28;20041;-67
2021/05/17 08:46:09;;;;;;;2.45;0.75;;;15.90;99.90;;;;;;4966672;28;20391;-67
2021/05/17 08:48:46;;;;;;;5.32;0.80;;;16.00;99.90;;;;;;4963208;28;20054;-67
2021/05/17 08:51:15;;;;;;;3.78;0.80;;;15.50;99.90;;;;;;4959291;28;20688;-67
2021/05/17 08:53:41;;;;;;;5.00;1.05;;;16.20;99.90;;;;;;4971338;28;20046;-67
2021/05/17 08:56:08;;;;;;;2.70;1.00;;;16.50;99.90;;;;;;4971283;28;20103;-67
2021/05/17 08:58:35;;;;;;;1.77;0.70;;;17.60;99.90;;;;;;4969266;28;20061;-67
2021/05/17 09:01:03;;;;;;;;;;;18.10;99.90;;;;;;4970228;28;20459;-68
2021/05/17 09:03:30;;;;;;;2.33;0.90;;;18.00;99.90;;;;;;4948962;28;19972;-67
2021/05/17 09:05:56;;;;;;;;;;;17.10;99.90;;;;;;4972030;28;20086;-68
2021/05/17 09:08:25;;;;;;;2.75;0.90;;;15.90;99.90;;;;;;4972243;28;19922;-68
2021/05/17 09:10:52;;;;;;;3.17;1.10;;;16.50;99.90;;;;;;4971508;28;20101;-68
2021/05/17 09:13:20;;;;;;;3.17;0.80;;;16.30;99.90;;;;;;4972170;28;20491;-68
2021/05/17 09:15:48;;;;;;;4.18;0.75;;;16.20;99.90;;;;;;4954565;28;20085;-69
2021/05/17 09:18:17;;;;;;;4.90;1.02;;;16.00;99.90;;;;;;4971995;28;20474;-69
2021/05/17 09:20:47;;;;;;;2.55;0.70;;;15.40;99.90;;;;;;4971698;28;20057;-68
2021/05/17 09:23:17;;;;;;;3.35;1.02;;;15.40;99.90;;;;;;4971288;28;20043;-68
2021/05/17 09:26:07;;;;;;;3.83;0.55;;;15.80;99.90;;;;;;4971464;28;20442;-68
2021/05/17 09:28:36;;;;;;;3.58;0.70;;;15.80;99.90;;;;;;4971477;28;20066;-69
2021/05/17 09:31:05;;;;;;;3.55;0.80;;;15.80;99.90;;;;;;4971314;28;20054;-68
2021/05/17 09:33:41;;;;;;;5.78;0.68;;;15.90;99.90;;;;;;4971584;28;20067;-67
2021/05/17 09:36:23;;;;;;;3.70;0.87;;;16.20;99.90;;;;;;4970967;28;20058;-68
2021/05/17 09:38:59;;;;;;;2.00;0.50;;;16.40;99.90;;;;;;4968923;28;20301;-67
2021/05/17 09:41:38;;;;;;;2.88;1.10;;;16.20;99.90;;;;;;4954055;28;20133;-67
2021/05/17 09:44:05;;;;;;;1.60;0.50;;;15.60;99.90;;;;;;4952589;28;20509;-67
2021/05/17 09:46:54;;;;;;;2.50;0.70;;;15.10;99.90;;;;;;4970985;28;20051;-67
2021/05/17 09:49:29;;;;;;;2.30;0.90;;;14.80;99.90;;;;;;4971072;28;20414;-67
2021/05/17 09:52:05;;;;;;;3.97;0.98;;;14.10;99.90;;;;;;4971414;28;20126;-70
2021/05/17 09:54:50;;;;;;;8.95;1.35;;;12.60;99.90;;;;;;4971964;28;20443;-71
2021/05/17 09:57:17;;;;;;;3.95;0.75;;;12.00;99.90;;;;;;4971604;28;20126;-70
2021/05/17 09:59:45;;;;;;;4.10;1.17;;;11.50;99.90;;;;;;4953861;28;20133;-69
2021/05/17 10:02:27;;;;;;;4.30;1.17;;;11.50;99.90;;;;;;4970387;28;20051;-69
2021/05/17 10:04:55;;;;;;;4.65;0.65;;;11.40;99.90;;;;;;4971122;28;20489;-69
2021/05/17 10:07:22;;;;;;;6.03;0.88;;;11.40;99.90;;;;;;4970695;28;20478;-69
2021/05/17 10:09:48;;;;;;;6.57;1.05;;;11.60;99.90;;;;;;4971468;28;20114;-69
2021/05/17 10:12:15;;;;;;;;;;;12.60;99.90;;;;;;4959246;28;20051;-69
2021/05/17 10:14:42;;;;;;;4.35;0.70;;;13.70;99.90;;;;;;4970238;28;19932;-71
2021/05/17 10:17:09;;;;;;;3.28;1.55;;;14.60;99.90;;;;;;4970900;28;20045;-72
2021/05/17 10:19:36;;;;;;;86.65;40.00;;;15.10;99.90;;;;;;4970343;28;20047;-72
2021/05/17 10:22:03;;;;;;;12.02;5.25;;;15.80;99.90;;;;;;4970292;28;20050;-72
2021/05/17 10:24:30;;;;;;;8.68;3.55;;;15.80;99.90;;;;;;4970609;28;20043;-71
2021/05/17 10:27:00;;;;;;;7.70;3.47;;;16.20;99.90;;;;;;4970813;28;20039;-71
2021/05/17 10:29:31;;;;;;;6.75;3.38;;;17.00;99.90;;;;;;4970509;28;20090;-72
2021/05/17 10:32:01;;;;;;;29.90;13.63;;;17.00;99.90;;;;;;4952437;28;20047;-73
2021/05/17 10:34:27;;;;;;;22.98;11.48;;;16.70;99.90;;;;;;4966542;28;20500;-73
2021/05/17 10:36:57;;;;;;;4.95;2.22;;;17.20;99.90;;;;;;4961600;28;20053;-74
2021/05/17 10:39:29;;;;;;;15.85;7.97;;;16.50;99.90;;;;;;4969017;28;20465;-73
2021/05/17 10:42:10;;;;;;;2.20;0.85;;;16.00;99.90;;;;;;4947207;28;20446;-73
2021/05/17 10:47:49;;;;;;;3.92;1.13;;;16.80;99.90;;;;;;4962633;28;20054;-73
2021/05/17 10:50:18;;;;;;;4.80;1.25;;;16.40;99.90;;;;;;4940110;28;20122;-67
2021/05/17 10:52:44;;;;;;;3.45;1.98;;;15.50;99.90;;;;;;4967260;28;20043;-67
2021/05/17 10:55:13;;;;;;;;;;;13.90;99.90;;;;;;4974298;28;20046;-67
2021/05/17 10:58:08;;;;;;;3.78;1.27;;;13.00;99.90;;;;;;4974273;28;19961;-68
2021/05/17 11:00:36;;;;;;;3.03;0.80;;;12.30;99.90;;;;;;4974758;28;20054;-68
2021/05/17 11:03:11;;;;;;;3.10;0.80;;;12.00;99.90;;;;;;4956608;28;20050;-69
2021/05/17 11:05:39;;;;;;;6.20;0.73;;;11.60;99.90;;;;;;4974440;28;20097;-69
2021/05/17 11:08:08;;;;;;;1.45;0.50;;;11.30;99.90;;;;;;4974393;28;20136;-68
2021/05/17 11:10:37;;;;;;;6.07;0.73;;;10.90;99.90;;;;;;4975062;28;20451;-68
2021/05/17 11:13:10;;;;;;;3.00;0.63;;;10.90;99.90;;;;;;4974658;28;20046;-68
2021/05/17 11:15:57;;;;;;;3.60;0.82;;;11.00;99.90;;;;;;4974278;28;20066;-67
2021/05/17 11:18:39;;;;;;;5.15;0.45;;;12.00;99.90;;;;;;4972511;28;20102;-67
2021/05/17 11:21:12;;;;;;;3.65;0.60;;;12.60;99.90;;;;;;4973883;28;20142;-67
2021/05/17 11:24:07;;;;;;;0.88;0.40;;;12.80;99.90;;;;;;4974054;28;20038;-67
2021/05/17 11:26:54;;;;;;;0.55;0.30;;;13.40;99.90;;;;;;4956718;28;20110;-66
2021/05/17 11:29:31;;;;;;;2.05;0.80;;;14.40;99.90;;;;;;4973836;28;20583;-66
2021/05/17 11:32:19;;;;;;;0.40;0.20;;;14.90;99.90;;;;;;4973548;28;20146;-66
2021/05/17 11:34:59;;;;;;;0.70;0.52;;;15.60;99.90;;;;;;4968310;28;20145;-65
2021/05/17 11:37:26;;;;;;;2.60;0.50;;;15.00;99.90;;;;;;4974478;28;20505;-66
2021/05/17 11:39:52;;;;;;;;;;;14.90;99.90;;;;;;4974233;28;20121;-67
2021/05/17 11:42:20;;;;;;;1.88;0.57;;;14.70;99.90;;;;;;4956230;28;19922;-66
2021/05/17 11:44:54;;;;;;;3.33;0.40;;;14.60;99.90;;;;;;4974025;28;20498;-67
2021/05/17 11:47:22;;;;;;;1.40;0.80;;;14.30;99.90;;;;;;4973925;28;20572;-66
2021/05/17 11:49:49;;;;;;;4.32;1.00;;;14.10;99.90;;;;;;4978416;23;20050;-67
2021/05/17 11:52:20;;;;;;;2.25;0.70;;;14.00;99.90;;;;;;4973653;28;20121;-67
2021/05/17 11:54:50;;;;;;;2.53;0.70;;;14.80;99.90;;;;;;4974537;28;20082;-68
2021/05/17 11:57:18;;;;;;;2.88;0.70;;;15.70;99.90;;;;;;4974379;28;20081;-68
2021/05/17 11:59:47;;;;;;;3.30;0.40;;;16.10;99.90;;;;;;4974053;28;20120;-67
2021/05/17 12:02:14;;;;;;;2.28;0.40;;;15.40;99.90;;;;;;4973809;28;20454;-68
2021/05/17 12:04:42;;;;;;;1.63;0.40;;;15.30;99.90;;;;;;4955923;28;20422;-69
2021/05/17 12:07:09;;;;;;;2.28;0.40;;;15.10;99.90;;;;;;4955840;28;20571;-69
2021/05/17 12:09:39;;;;;;;1.40;0.35;;;14.90;99.90;;;;;;4973134;28;20051;-68
2021/05/17 12:12:09;;;;;;;0.82;0.38;;;14.80;99.90;;;;;;4973257;28;20482;-68
2021/05/17 12:14:36;;;;;;;1.25;0.30;;;15.40;99.90;;;;;;4973529;28;20455;-68
2021/05/17 12:17:15;;;;;;;1.10;0.32;;;16.40;99.90;;;;;;4955827;28;20059;-68
2021/05/17 12:19:43;;;;;;;1.08;0.50;;;16.50;99.90;;;;;;4973002;28;20074;-68
2021/05/17 12:22:14;;;;;;;1.60;0.50;;;16.30;99.90;;;;;;4973315;28;20097;-68
2021/05/17 12:24:40;;;;;;;2.45;0.80;;;16.30;99.90;;;;;;4973089;28;20066;-68
2021/05/17 12:27:09;;;;;;;1.10;0.45;;;15.70;99.90;;;;;;4972932;28;20127;-68
2021/05/17 12:29:58;;;;;;;4.18;0.65;;;15.20;99.90;;;;;;4972658;28;20503;-68
2021/05/17 12:32:38;;;;;;;2.13;0.57;;;15.10;99.90;;;;;;4972801;28;20487;-67
2021/05/17 12:35:07;;;;;;;1.13;0.30;;;14.50;99.90;;;;;;4973330;28;20537;-69
2021/05/17 12:37:36;;;;;;;1.10;0.35;;;14.10;99.90;;;;;;4973082;28;20129;-68
2021/05/17 12:40:27;;;;;;;2.97;0.52;;;13.60;99.90;;;;;;4975133;28;20046;-68
2021/05/17 12:43:08;;;;;;;1.23;0.40;;;13.50;99.90;;;;;;4953462;28;20082;-68
2021/05/17 12:45:37;;;;;;;2.63;0.40;;;13.30;99.90;;;;;;4951815;29;20054;-68
2021/05/17 12:48:10;;;;;;;1.38;0.43;;;13.20;99.90;;;;;;4952623;29;20074;-69
2021/05/17 12:50:36;;;;;;;1.98;0.43;;;13.10;99.90;;;;;;4952234;29;20050;-68
2021/05/17 12:53:04;;;;;;;;;;;13.20;99.90;;;;;;4953197;29;20044;-68
2021/05/17 12:55:38;;;;;;;3.88;0.77;;;13.20;99.90;;;;;;4952569;29;19926;-68
2021/05/17 12:58:05;;;;;;;2.15;0.70;;;13.10;99.90;;;;;;4952096;29;20077;-68
2021/05/17 13:00:41;;;;;;;3.70;0.55;;;13.30;99.90;;;;;;4954103;29;20110;-68
2021/05/17 13:03:11;;;;;;;1.27;0.28;;;14.00;99.90;;;;;;4952669;29;20051;-68
2021/05/17 13:06:01;;;;;;;3.78;0.57;;;15.10;99.90;;;;;;4953374;29;20039;-68
2021/05/17 13:08:44;;;;;;;1.67;0.70;;;16.00;99.90;;;;;;4964475;28;20126;-68
2021/05/17 13:11:13;;;;;;;9.82;3.90;;;16.70;99.90;;;;;;4959913;28;20117;-70
2021/05/17 13:13:45;;;;;;;3.33;0.88;;;17.80;99.90;;;;;;4952693;28;20046;-69
2021/05/17 13:16:31;;;;;;;3.83;1.08;;;17.70;99.90;;;;;;4972349;28;20542;-69
2021/05/17 13:19:15;;;;;;;5.28;1.85;;;17.20;99.90;;;;;;4954612;28;20507;-68
2021/05/17 13:22:03;;;;;;;1.45;0.52;;;17.20;99.90;;;;;;4970405;28;20041;-69
2021/05/17 13:30:04;;;;;;;3.85;1.63;;;16.90;99.90;;;;;;4953904;28;20050;-70
2021/05/17 13:32:31;;;;;;;20.50;9.38;;;16.90;99.90;;;;;;4972153;28;20053;-68
2021/05/17 13:34:59;;;;;;;7.00;3.03;;;17.10;99.90;;;;;;4971690;28;20051;-68
2021/05/17 13:37:26;;;;;;;15.52;6.15;;;16.80;99.90;;;;;;4972130;28;20051;-69
2021/05/17 13:39:53;;;;;;;0.95;0.35;;;16.60;99.90;;;;;;4969514;28;20071;-68
2021/05/17 13:42:20;;;;;;;5.90;1.42;;;16.50;99.90;;;;;;4954199;28;20571;-69
2021/05/17 13:44:46;;;;;;;7.45;3.05;;;16.20;99.90;;;;;;4961473;28;20038;-69
2021/05/17 13:47:13;;;;;;;1.30;0.50;;;16.10;99.90;;;;;;4964753;28;20055;-68
2021/05/17 13:49:40;;;;;;;1.50;0.77;;;15.90;99.90;;;;;;4965230;28;20090;-68
2021/05/17 13:52:08;;;;;;;0.82;0.60;;;15.50;99.90;;;;;;4971272;28;20051;-68
2021/05/17 13:54:35;;;;;;;4.47;0.60;;;15.30;99.90;;;;;;4954147;28;20043;-68
2021/05/17 13:57:01;;;;;;;;;;;14.70;99.90;;;;;;4971492;28;20544;-69
2021/05/17 13:59:28;;;;;;;2.20;0.90;;;14.10;99.90;;;;;;4970435;28;19921;-68
2021/05/17 14:01:55;;;;;;;;;;;13.60;99.90;;;;;;4966356;28;20118;-68
2021/05/17 14:04:22;;;;;;;1.80;0.65;;;13.20;99.90;;;;;;4957135;28;19922;-69
2021/05/17 14:06:48;;;;;;;;;;;13.00;99.90;;;;;;4953477;28;20377;-68
2021/05/17 14:09:18;;;;;;;1.38;0.73;;;12.90;99.90;;;;;;4964985;28;20006;-67
2021/05/17 14:11:46;;;;;;;3.92;0.85;;;12.90;99.90;;;;;;4970596;28;20069;-68
2021/05/17 14:14:12;;;;;;;4.88;1.50;;;12.90;99.90;;;;;;4968871;28;20094;-68
2021/05/17 14:16:38;;;;;;;1.45;0.57;;;13.00;99.90;;;;;;4952297;29;20039;-68
2021/05/17 14:19:05;;;;;;;1.85;0.88;;;13.20;99.90;;;;;;4957539;28;20091;-69
2021/05/17 14:21:32;;;;;;;4.07;1.10;;;13.40;99.90;;;;;;4936594;28;20463;-68
2021/05/17 14:23:58;;;;;;;;;;;13.50;99.90;;;;;;4963638;28;20050;-69
2021/05/17 14:26:25;;;;;;;5.35;0.93;;;13.80;99.90;;;;;;4957092;28;19922;-68
2021/05/17 14:28:52;;;;;;;1.33;0.75;;;14.40;99.90;;;;;;4965668;28;20051;-68
2021/05/17 14:31:19;;;;;;;;;;;15.20;99.90;;;;;;4953957;28;20039;-68
2021/05/17 14:33:46;;;;;;;0.75;0.50;;;15.80;99.90;;;;;;4962505;28;19933;-68
2021/05/17 14:36:13;;;;;;;1.45;0.50;;;16.00;99.90;;;;;;4952341;29;20078;-68
2021/05/17 14:38:40;;;;;;;2.05;0.90;;;16.40;99.90;;;;;;4953983;28;20463;-68
2021/05/17 14:41:07;;;;;;;;;;;17.00;99.90;;;;;;4965690;28;20093;-68
2021/05/17 14:43:34;;;;;;;1.50;0.40;;;16.90;99.90;;;;;;4970681;28;20651;-68
2021/05/17 14:46:03;;;;;;;0.65;0.50;;;16.80;99.90;;;;;;4971141;28;20138;-67
2021/05/17 14:48:30;;;;;;;3.08;0.60;;;17.00;99.90;;;;;;4970611;28;20511;-67
2021/05/17 14:50:57;;;;;;;;;;;16.90;99.90;;;;;;4969402;28;20060;-67
2021/05/17 14:53:24;;;;;;;3.42;1.00;;;17.10;99.90;;;;;;4970929;28;19922;-67
2021/05/17 14:55:50;;;;;;;;;;;17.40;99.90;;;;;;4972597;28;20047;-68
2021/05/17 14:58:16;;;;;;;2.63;0.47;;;17.20;99.90;;;;;;4982145;28;20450;-68
2021/05/17 15:00:45;;;;;;;3.83;0.63;;;17.00;99.90;;;;;;4970636;28;20051;-67
2021/05/17 15:03:12;;;;;;;5.45;0.52;;;16.60;99.90;;;;;;4970417;28;20471;-67
2021/05/17 15:05:38;;;;;;;1.63;0.70;;;16.40;99.90;;;;;;4965690;28;20047;-67
2021/05/17 15:08:07;;;;;;;2.00;0.45;;;16.10;99.90;;;;;;4961294;28;20050;-67
2021/05/17 15:10:35;;;;;;;2.28;0.38;;;15.90;99.90;;;;;;4956360;28;20554;-68
2021/05/17 15:13:01;;;;;;;1.50;0.40;;;16.10;99.90;;;;;;4945557;28;20065;-68
2021/05/17 15:15:28;;;;;;;;;;;16.10;99.90;;;;;;4957606;28;20050;-67
2021/05/17 15:17:56;;;;;;;2.17;0.50;;;16.20;99.90;;;;;;4957782;28;19969;-68
2021/05/17 15:20:24;;;;;;;3.45;0.70;;;16.20;99.90;;;;;;4947406;28;20125;-68
2021/05/17 15:22:51;;;;;;;2.38;0.90;;;16.10;99.90;;;;;;4932516;28;20046;-68
2021/05/17 15:25:19;;;;;;;2.50;0.68;;;16.00;99.90;;;;;;4951885;28;20050;-68
2021/05/17 15:27:47;;;;;;;1.27;0.68;;;16.00;99.90;;;;;;4950912;28;20154;-68
2021/05/17 15:30:16;;;;;;;3.70;0.70;;;16.20;99.90;;;;;;4950988;28;20535;-68
2021/05/17 15:32:42;;;;;;;3.55;0.50;;;16.10;99.90;;;;;;4949912;28;20061;-68
2021/05/17 15:35:11;;;;;;;;;;;16.10;99.90;;;;;;4932084;28;20051;-67
2021/05/17 15:37:38;;;;;;;0.93;0.43;;;15.90;99.90;;;;;;4935175;28;20383;-68
2021/05/17 15:40:07;;;;;;;2.50;0.50;;;15.90;99.90;;;;;;4953800;28;20130;-68
2021/05/17 15:42:33;;;;;;;3.05;0.68;;;15.80;99.90;;;;;;4957446;28;20043;-68
2021/05/17 15:45:00;;;;;;;4.95;1.08;;;16.00;99.90;;;;;;4952333;28;20043;-68
2021/05/17 15:47:27;;;;;;;2.22;0.63;;;16.00;99.90;;;;;;4953400;28;20093;-68
2021/05/17 15:49:53;;;;;;;2.28;0.50;;;16.30;99.90;;;;;;4954650;28;20045;-68
2021/05/17 15:52:21;;;;;;;1.98;0.45;;;16.50;99.90;;;;;;4952319;28;20054;-68
2021/05/17 15:54:47;;;;;;;1.20;0.50;;;16.10;99.90;;;;;;4953873;28;20040;-68
2021/05/17 15:57:14;;;;;;;1.38;0.35;;;16.10;99.90;;;;;;4933106;28;21063;-68
2021/05/17 15:59:41;;;;;;;3.72;0.45;;;15.80;99.90;;;;;;4952747;28;20043;-68
2021/05/17 16:02:08;;;;;;;;;;;15.70;99.90;;;;;;4951382;28;20070;-68
2021/05/17 16:04:34;;;;;;;2.13;0.50;;;15.70;99.90;;;;;;4951080;28;20000;-69
2021/05/17 16:07:01;;;;;;;;;;;15.80;99.90;;;;;;4955920;28;20376;-68
2021/05/17 16:09:29;;;;;;;5.65;2.15;;;15.60;99.90;;;;;;4949630;28;19953;-68
2021/05/17 16:12:02;;;;;;;1.63;0.60;;;15.30;99.90;;;;;;4951548;28;20042;-68
2021/05/17 16:14:32;;;;;;;0.85;0.40;;;15.20;99.90;;;;;;4952899;28;20121;-69
2021/05/17 16:22:25;;;;;;;5.78;0.60;;;15.10;99.90;;;;;;4963409;28;20045;-68
2021/05/17 16:24:54;;;;;;;2.33;0.75;;;15.10;99.90;;;;;;4954939;28;20038;-68
2021/05/17 16:27:21;;;;;;;1.98;0.57;;;15.10;99.90;;;;;;4942039;28;20058;-69
2021/05/17 16:29:48;;;;;;;2.10;0.35;;;15.10;99.90;;;;;;4937856;28;20093;-69
2021/05/17 16:32:15;;;;;;;1.45;0.68;;;14.70;99.90;;;;;;4959303;28;20046;-70
2021/05/17 16:34:42;;;;;;;2.20;0.75;;;14.40;99.90;;;;;;4965605;28;20103;-68
2021/05/17 16:37:10;;;;;;;2.88;0.50;;;14.00;99.90;;;;;;4963784;28;20070;-69
2021/05/17 16:39:37;;;;;;;2.50;1.70;;;13.90;99.90;;;;;;4956402;28;20054;-69
2021/05/17 16:42:05;;;;;;;3.72;1.50;;;13.80;99.90;;;;;;4955722;28;20043;-69
2021/05/17 16:44:32;;;;;;;4.90;4.30;;;13.80;99.90;;;;;;4954586;28;20563;-69
2021/05/17 16:46:59;;;;;;;7.43;2.22;;;13.90;99.90;;;;;;4952697;28;20047;-69
2021/05/17 16:49:26;;;;;;;6.82;4.30;;;13.90;99.90;;;;;;4961151;28;20118;-69
2021/05/17 16:51:53;;;;;;;;;;;13.90;99.90;;;;;;4953180;28;20046;-69
2021/05/17 16:54:21;;;;;;;5.13;1.95;;;13.80;99.90;;;;;;4967934;28;19921;-68
2021/05/17 16:56:48;;;;;;;3.90;1.35;;;13.80;99.90;;;;;;4960420;28;20448;-68
2021/05/17 16:59:20;;;;;;;56.20;42.10;;;13.60;99.90;;;;;;4953945;28;20143;-68
2021/05/17 17:01:47;;;;;;;3.70;2.65;;;13.50;99.90;;;;;;4958651;28;20106;-68
2021/05/17 17:04:14;;;;;;;3.20;1.20;;;13.40;99.90;;;;;;4968898;28;20040;-69
2021/05/17 17:06:44;;;;;;;5.93;1.85;;;13.20;99.90;;;;;;4960842;28;20069;-69
2021/05/17 17:09:13;;;;;;;2.22;1.30;;;13.20;99.90;;;;;;4972434;28;20046;-69
2021/05/17 17:11:40;;;;;;;4.10;1.60;;;13.30;99.90;;;;;;4954172;28;20565;-69
2021/05/17 17:14:10;;;;;;;3.00;1.23;;;13.50;99.90;;;;;;4969987;28;20047;-69
2021/05/17 17:16:38;;;;;;;5.53;2.38;;;13.50;99.90;;;;;;4963850;28;20428;-70
2021/05/17 17:19:05;;;;;;;1.90;1.30;;;13.70;99.90;;;;;;4961280;28;20043;-69
2021/05/17 17:21:32;;;;;;;4.93;1.02;;;13.70;99.90;;;;;;4952118;29;20122;-70
2021/05/17 17:23:59;;;;;;;5.22;1.55;;;13.70;99.90;;;;;;4955864;28;20529;-70
2021/05/17 17:26:28;;;;;;;2.22;1.20;;;13.70;99.90;;;;;;4966399;28;20513;-70
2021/05/17 17:28:55;;;;;;;8.05;1.75;;;13.80;99.90;;;;;;4969510;28;20050;-69
2021/05/17 17:31:21;;;;;;;2.92;0.85;;;13.80;99.90;;;;;;4960741;28;20046;-70
2021/05/17 17:33:49;;;;;;;5.25;2.15;;;13.80;99.90;;;;;;4936072;28;20051;-70
2021/05/17 17:36:16;;;;;;;3.50;1.20;;;13.80;99.90;;;;;;4954321;28;20050;-69
2021/05/17 17:38:43;;;;;;;3.00;1.20;;;13.80;99.90;;;;;;4964143;28;20043;-69
2021/05/17 17:41:10;;;;;;;2.53;1.05;;;13.80;99.90;;;;;;4970867;28;20109;-69
2021/05/17 17:43:37;;;;;;;3.08;1.52;;;13.80;99.90;;;;;;4972007;28;20050;-70
2021/05/17 17:46:05;;;;;;;3.75;1.25;;;13.70;99.90;;;;;;4945414;28;20483;-70
2021/05/17 17:49:01;;;;;;;3.05;1.30;;;13.60;99.90;;;;;;4949527;28;20408;-70
2021/05/17 17:51:20;;;;;;;2.55;1.15;;;13.50;99.90;;;;;;4977384;23;20053;-68
2021/05/17 17:53:47;;;;;;;1.95;1.05;;;13.40;99.90;;;;;;4963063;28;20582;-68
2021/05/17 17:56:14;;;;;;;1.85;1.00;;;13.40;99.90;;;;;;4962739;28;20275;-66
2021/05/17 17:58:40;;;;;;;2.38;0.88;;;13.40;99.90;;;;;;4964454;28;20118;-69
2021/05/17 18:01:07;;;;;;;4.75;1.10;;;13.40;99.90;;;;;;4967297;28;20038;-68
2021/05/17 18:03:34;;;;;;;1.33;1.00;;;13.40;99.90;;;;;;4946622;28;20054;-68
2021/05/17 18:06:01;;;;;;;2.08;0.77;;;13.40;99.90;;;;;;4966428;28;20122;-68
2021/05/17 18:08:28;;;;;;;;;;;13.30;99.90;;;;;;4952622;28;20051;-68
2021/05/17 18:10:56;;;;;;;4.07;0.85;;;13.40;99.90;;;;;;4975812;28;19928;-67
2021/05/17 18:13:23;;;;;;;1.38;0.80;;;13.30;99.90;;;;;;4979712;28;20042;-67
2021/05/17 18:15:50;;;;;;;1.38;0.90;;;13.30;99.90;;;;;;4972618;28;20039;-68
2021/05/17 18:18:17;;;;;;;2.67;0.82;;;13.30;99.90;;;;;;4967068;28;20046;-67
2021/05/17 18:20:43;;;;;;;2.75;0.90;;;13.20;99.90;;;;;;4969655;28;20049;-67
2021/05/17 18:23:13;;;;;;;3.60;0.90;;;13.20;99.90;;;;;;4970770;28;20050;-66
2021/05/17 18:25:41;;;;;;;3.20;1.13;;;13.20;99.90;;;;;;4983850;28;20051;-67
2021/05/17 18:28:07;;;;;;;1.48;0.90;;;13.10;99.90;;;;;;4954005;28;20050;-67
2021/05/17 18:30:35;;;;;;;;;;;13.10;99.90;;;;;;4970575;28;20499;-66
2021/05/17 18:33:03;;;;;;;2.38;1.10;;;13.10;99.90;;;;;;4959297;28;20386;-66
2021/05/17 18:35:31;;;;;;;3.42;1.15;;;12.90;99.90;;;;;;4970764;28;20085;-68